Terminal Aerodrome Forecast
Issued by NWS

Home | Current Version | Previous Version | Text Only | Print | Product List | Glossary On
Versions: 1 2 3 4 5 6 7 8 9 10 11 12 13 14 15 16 17 18 19 20 21 22 23 24 25 26 27 28 29 30 31 32 33 34 35 36 37
000
FTUS45 KBOI 302328
TAFBKE
TAF
KBKE 302328Z 3100/3124 30005KT P6SM SKC
     FM310800 VRB03KT 2SM BR SCT005
     FM311200 VRB03KT 1/4SM FZFG VV001
     FM311800 33006KT P6SM SKC=

USA.gov is the U.S. government's official web portal to all federal, state and local government web resources and services.